createdAt,value
2023-05-01T00:00:53.565Z,101726.72
2023-05-01T00:03:37.707Z,101735.19
2023-05-01T00:06:21.679Z,101726.78
2023-05-01T00:09:07.472Z,101728.41
2023-05-01T00:11:53.535Z,101721.63
2023-05-01T00:14:37.464Z,101730.22
2023-05-01T00:17:23.096Z,101724.75
2023-05-01T00:20:07.888Z,101728.59
2023-05-01T00:22:51.986Z,101725.63
2023-05-01T00:25:39.206Z,101716.91
2023-05-01T00:28:23.253Z,101723.63
2023-05-01T00:31:07.013Z,101719.44
2023-05-01T00:33:50.901Z,101717.56
2023-05-01T00:36:34.700Z,101715.72
2023-05-01T00:39:20.979Z,101711.13
2023-05-01T00:42:05.222Z,101712.22
2023-05-01T00:44:48.906Z,101714.38
2023-05-01T00:47:36.071Z,101705.94
2023-05-01T00:50:20.949Z,101709.75
2023-05-01T00:53:05.882Z,101703.84
2023-05-01T00:55:51.284Z,101702.25
2023-05-01T00:58:35.296Z,101707.66
2023-05-01T01:01:21.733Z,101699.00
2023-05-01T01:04:05.807Z,101698.41
2023-05-01T01:07:29.805Z,101699.50
2023-05-01T01:10:31.545Z,101695.19
2023-05-01T01:13:35.805Z,101695.47
2023-05-01T01:16:46.806Z,101700.41
2023-05-01T01:20:22.424Z,101692.50
2023-05-01T01:23:40.110Z,101692.78
2023-05-01T01:26:32.758Z,101685.75
2023-05-01T01:29:50.411Z,101690.91
2023-05-01T01:33:17.666Z,101681.97
2023-05-01T01:36:16.190Z,101683.09
2023-05-01T01:39:25.428Z,101677.94
2023-05-01T01:42:16.207Z,101679.56
2023-05-01T01:45:11.134Z,101673.34
2023-05-01T01:47:56.537Z,101664.94
2023-05-01T01:50:44.413Z,101660.88
2023-05-01T01:53:33.495Z,101659.50
2023-05-01T01:56:22.054Z,101663.31
2023-05-01T01:59:09.220Z,101669.00
2023-05-01T02:01:57.552Z,101672.00
2023-05-01T02:04:44.597Z,101664.13
2023-05-01T02:07:30.867Z,101654.13
2023-05-01T02:10:16.501Z,101656.81
2023-05-01T02:13:03.553Z,101656.00
2023-05-01T02:15:49.827Z,101653.34
2023-05-01T02:18:36.189Z,101653.88
2023-05-01T02:21:21.418Z,101644.13
2023-05-01T02:24:06.830Z,101653.06
2023-05-01T02:26:59.681Z,101647.66
2023-05-01T02:29:44.481Z,101639.81
2023-05-01T02:32:28.719Z,101648.19
2023-05-01T02:35:13.114Z,101636.00
2023-05-01T02:37:57.457Z,101636.00
2023-05-01T02:40:48.985Z,101643.31
2023-05-01T02:43:34.365Z,101630.59
2023-05-01T02:46:21.158Z,101630.59
2023-05-01T02:49:07.303Z,101623.56
2023-05-01T02:51:51.578Z,101623.84
2023-05-01T02:54:35.293Z,101613.28
2023-05-01T02:57:20.463Z,101611.91
2023-05-01T03:00:04.673Z,101613.53
2023-05-01T03:02:49.412Z,101605.41
2023-05-01T03:05:33.268Z,101593.53
2023-05-01T03:08:17.322Z,101595.97
2023-05-01T03:11:08.118Z,101590.56
2023-05-01T03:13:52.210Z,101584.06
2023-05-01T03:16:35.807Z,101584.03
2023-05-01T03:19:19.348Z,101581.59
2023-05-01T03:22:03.782Z,101584.31
2023-05-01T03:24:47.820Z,101584.63
2023-05-01T03:27:33.919Z,101578.09
2023-05-01T03:30:17.740Z,101576.22
2023-05-01T03:33:01.416Z,101576.50
2023-05-01T03:35:48.310Z,101574.03
2023-05-01T03:38:33.284Z,101571.34
2023-05-01T03:41:25.426Z,101573.53
2023-05-01T03:44:32.944Z,101571.09
2023-05-01T03:47:17.060Z,101567.53
2023-05-01T03:50:00.606Z,101568.38
2023-05-01T03:52:44.353Z,101572.69
2023-05-01T03:55:28.134Z,101566.22
2023-05-01T03:58:11.898Z,101568.94
2023-05-01T04:00:57.138Z,101567.31
2023-05-01T04:03:41.077Z,101570.53
2023-05-01T04:06:25.484Z,101572.19
2023-05-01T04:09:09.122Z,101569.72
2023-05-01T04:11:52.685Z,101564.88
2023-05-01T04:14:36.331Z,101567.00
2023-05-01T04:17:20.680Z,101564.88
2023-05-01T04:20:06.394Z,101566.19
2023-05-01T04:22:50.229Z,101561.88
2023-05-01T04:25:34.296Z,101565.66
2023-05-01T04:28:23.445Z,101564.56
2023-05-01T04:31:07.458Z,101555.09
2023-05-01T04:36:35.911Z,101563.25
2023-05-01T04:39:19.862Z,101552.94
2023-05-01T04:42:04.471Z,101558.09
2023-05-01T04:44:48.529Z,101555.09
2023-05-01T04:47:32.266Z,101541.31
2023-05-01T04:50:16.127Z,101548.59
2023-05-01T04:52:59.744Z,101548.59
2023-05-01T04:55:43.468Z,101543.44
2023-05-01T04:58:31.847Z,101546.09
2023-05-01T05:01:20.473Z,101548.84
2023-05-01T05:04:04.264Z,101546.16
2023-05-01T05:06:48.679Z,101541.81
2023-05-01T05:09:38.902Z,101544.75
2023-05-01T05:12:22.476Z,101540.13
2023-05-01T05:15:06.804Z,101534.22
2023-05-01T05:17:53.450Z,101544.44
2023-05-01T05:20:40.087Z,101528.44
2023-05-01T05:23:23.653Z,101527.38
2023-05-01T05:26:07.232Z,101530.81
2023-05-01T05:28:51.200Z,101524.88
2023-05-01T05:31:34.860Z,101523.19
2023-05-01T05:34:19.726Z,101521.97
2023-05-01T05:37:03.285Z,101511.94
2023-05-01T05:39:46.943Z,101516.13
2023-05-01T05:42:31.445Z,101502.84
2023-05-01T05:45:20.611Z,101502.34
2023-05-01T05:48:04.811Z,101502.63
2023-05-01T05:50:53.423Z,101498.78
2023-05-01T05:53:38.230Z,101494.38
2023-05-01T05:56:22.106Z,101494.28
2023-05-01T05:59:06.644Z,101488.13
2023-05-01T06:01:50.209Z,101490.03
2023-05-01T06:04:33.743Z,101491.53
2023-05-01T06:07:23.125Z,101492.00
2023-05-01T06:10:07.642Z,101497.63
2023-05-01T06:12:55.054Z,101487.34
2023-05-01T06:15:45.206Z,101491.84
2023-05-01T06:18:30.610Z,101494.50
2023-05-01T06:21:14.176Z,101492.28
2023-05-01T06:23:57.673Z,101491.34
2023-05-01T06:26:47.939Z,101492.94
2023-05-01T06:29:31.974Z,101494.63
2023-05-01T06:32:15.901Z,101484.34
2023-05-01T06:34:59.536Z,101473.31
2023-05-01T06:37:43.137Z,101484.31
2023-05-01T06:40:28.422Z,101489.50
2023-05-01T06:43:12.073Z,101488.81
2023-05-01T06:45:55.989Z,101477.19
2023-05-01T06:48:39.604Z,101477.78
2023-05-01T06:51:23.187Z,101477.19
2023-05-01T06:54:06.678Z,101477.34
2023-05-01T06:56:50.446Z,101481.56
2023-05-01T06:59:33.969Z,101482.03
2023-05-01T07:02:17.598Z,101489.59
2023-05-01T07:05:01.301Z,101480.03
2023-05-01T07:07:54.157Z,101476.69
2023-05-01T07:10:44.267Z,101475.66
2023-05-01T07:13:27.927Z,101484.09
2023-05-01T07:16:11.894Z,101472.16
2023-05-01T07:18:55.462Z,101467.72
2023-05-01T07:21:38.979Z,101470.84
2023-05-01T07:24:22.525Z,101471.97
2023-05-01T07:27:06.429Z,101468.38
2023-05-01T07:29:50.963Z,101469.72
2023-05-01T07:32:34.533Z,101469.09
2023-05-01T07:35:18.288Z,101466.63
2023-05-01T07:38:01.896Z,101455.38
2023-05-01T07:40:45.877Z,101452.94
2023-05-01T07:43:29.504Z,101446.84
2023-05-01T07:46:13.121Z,101448.59
2023-05-01T07:48:56.950Z,101445.69
2023-05-01T07:51:40.485Z,101435.84
2023-05-01T07:54:24.757Z,101434.69
2023-05-01T07:57:08.431Z,101441.59
2023-05-01T07:59:58.370Z,101437.69
2023-05-01T08:02:42.288Z,101422.81
2023-05-01T08:05:26.109Z,101428.03
2023-05-01T08:08:09.944Z,101422.84
2023-05-01T08:10:54.990Z,101427.03
2023-05-01T08:13:38.541Z,101419.09
2023-05-01T08:16:22.359Z,101412.94
2023-05-01T08:19:06.077Z,101417.28
2023-05-01T08:21:49.709Z,101425.78
2023-05-01T08:24:33.231Z,101422.03
2023-05-01T08:27:16.870Z,101404.78
2023-05-01T08:30:02.691Z,101409.25
2023-05-01T08:32:48.297Z,101405.38
2023-05-01T08:35:32.187Z,101415.09
2023-05-01T08:38:15.963Z,101408.13
2023-05-01T08:41:01.762Z,101401.00
2023-05-01T08:43:45.523Z,101404.53
2023-05-01T08:47:08.442Z,101397.94
2023-05-01T08:49:59.203Z,101385.38
2023-05-01T08:52:44.796Z,101383.00
2023-05-01T08:55:32.619Z,101382.75
2023-05-01T08:58:21.823Z,101380.25
2023-05-01T09:01:13.482Z,101375.38
2023-05-01T09:04:09.723Z,101371.66
2023-05-01T09:07:04.885Z,101363.34
2023-05-01T09:09:53.686Z,101359.09
2023-05-01T09:12:44.971Z,101362.72
2023-05-01T09:15:30.871Z,101359.53
2023-05-01T09:18:18.333Z,101352.44
2023-05-01T09:21:08.966Z,101349.00
2023-05-01T09:23:57.593Z,101342.78
2023-05-01T09:26:46.564Z,101337.88
2023-05-01T09:29:48.243Z,101327.50
2023-05-01T09:32:31.943Z,101338.44
2023-05-01T09:35:18.656Z,101330.44
2023-05-01T09:38:04.321Z,101329.84
2023-05-01T09:40:48.805Z,101331.78
2023-05-01T09:43:38.775Z,101314.44
2023-05-01T09:46:42.154Z,101310.06
2023-05-01T09:49:48.409Z,101297.47
2023-05-01T09:52:33.862Z,101304.38
2023-05-01T09:55:19.136Z,101304.09
2023-05-01T09:58:06.677Z,101290.50
2023-05-01T10:00:52.078Z,101297.94
2023-05-01T10:03:36.506Z,101299.28
2023-05-01T10:06:29.505Z,101287.94
2023-05-01T10:09:29.147Z,101285.94
2023-05-01T10:12:29.483Z,101281.44
2023-05-01T10:15:24.704Z,101273.41
2023-05-01T10:18:14.255Z,101277.22
2023-05-01T10:20:58.023Z,101267.59
2023-05-01T10:23:41.799Z,101264.38
2023-05-01T10:26:27.641Z,101272.59
2023-05-01T10:29:12.992Z,101264.19
2023-05-01T10:31:57.071Z,101256.25
2023-05-01T10:34:57.007Z,101252.00
2023-05-01T10:38:01.083Z,101244.50
2023-05-01T10:40:49.896Z,101236.50
2023-05-01T10:43:33.353Z,101234.25
2023-05-01T10:46:20.229Z,101228.19
2023-05-01T10:49:04.296Z,101226.91
2023-05-01T10:52:08.076Z,101215.19
2023-05-01T10:55:22.459Z,101204.66
2023-05-01T10:58:09.044Z,101211.97
2023-05-01T11:01:34.675Z,101207.38
2023-05-01T11:04:24.860Z,101199.47
2023-05-01T11:07:15.198Z,101196.31
2023-05-01T11:09:59.157Z,101201.09
2023-05-01T11:12:46.034Z,101195.91
2023-05-01T11:20:27.801Z,101183.19
2023-05-01T11:23:18.209Z,101179.84
2023-05-01T11:26:05.088Z,101167.28
2023-05-01T11:37:34.705Z,101147.78
2023-05-01T11:40:45.235Z,101137.09
2023-05-01T11:43:28.903Z,101134.50
2023-05-01T11:46:14.108Z,101136.56
2023-05-01T11:49:02.701Z,101129.44
2023-05-01T11:51:58.307Z,101130.66
2023-05-01T11:54:48.800Z,101127.22
2023-05-01T12:05:44.081Z,101113.09
2023-05-01T12:21:47.655Z,101092.75
2023-05-01T12:28:24.897Z,101093.94
2023-05-01T12:31:08.719Z,101082.81
2023-05-01T12:34:02.105Z,101081.22
2023-05-01T12:36:55.109Z,101075.66
2023-05-01T12:51:55.143Z,101051.13
2023-05-01T12:54:43.292Z,101037.81
2023-05-01T12:57:34.178Z,101041.13
2023-05-01T13:00:20.972Z,101048.72
2023-05-01T13:03:05.600Z,101038.69
2023-05-01T13:05:58.518Z,101034.16
2023-05-01T13:08:42.446Z,101029.53
2023-05-01T13:57:41.826Z,101000.53
2023-05-01T14:00:27.265Z,100996.22
2023-05-01T14:03:12.379Z,100986.38
2023-05-01T14:05:56.102Z,100979.09
2023-05-01T14:08:40.036Z,100975.66
2023-05-01T14:11:26.009Z,100979.63
2023-05-01T14:14:17.153Z,100975.63
2023-05-01T14:17:00.823Z,100978.56
2023-05-01T14:19:52.632Z,100974.63
2023-05-01T14:22:46.755Z,100967.38
2023-05-01T14:25:34.849Z,100962.63
2023-05-01T14:28:18.928Z,100955.28
2023-05-01T14:31:02.554Z,100951.84
2023-05-01T14:33:57.670Z,100957.06
2023-05-01T14:36:43.587Z,100955.84
2023-05-01T14:39:27.348Z,100941.66
2023-05-01T14:42:12.412Z,100945.16
2023-05-01T14:44:56.781Z,100941.50
2023-05-01T14:47:41.872Z,100937.97
2023-05-01T14:50:25.694Z,100929.09
2023-05-01T14:53:09.336Z,100932.47
2023-05-01T14:55:54.243Z,100932.53
2023-05-01T14:58:37.863Z,100929.41
2023-05-01T15:01:22.016Z,100935.28
2023-05-01T15:04:07.675Z,100931.19
2023-05-01T15:06:52.361Z,100928.53
2023-05-01T15:09:43.009Z,100930.94
2023-05-01T15:12:27.205Z,100924.28
2023-05-01T15:15:11.495Z,100933.63
2023-05-01T15:17:55.036Z,100927.88
2023-05-01T15:24:21.118Z,100913.81
2023-05-01T15:27:08.085Z,100919.56
2023-05-01T15:29:51.602Z,100924.94
2023-05-01T15:32:35.261Z,100920.06
2023-05-01T15:35:18.871Z,100911.69
2023-05-01T15:38:03.998Z,100919.31
2023-05-01T15:40:49.999Z,100916.09
2023-05-01T15:43:33.633Z,100915.69
2023-05-01T15:46:18.457Z,100913.81
2023-05-01T15:49:01.965Z,100913.44
2023-05-01T15:51:45.604Z,100908.22
2023-05-01T15:54:29.120Z,100911.34
2023-05-01T16:16:26.712Z,100897.03
2023-05-01T16:23:06.160Z,100901.78
2023-05-01T16:29:11.974Z,100897.78
2023-05-01T16:31:55.680Z,100897.81
2023-05-01T16:34:40.476Z,100888.69
2023-05-01T16:37:27.086Z,100885.94
2023-05-01T16:40:17.591Z,100890.84
2023-05-01T16:43:02.665Z,100893.22
2023-05-01T16:45:47.164Z,100894.06
2023-05-01T16:48:31.754Z,100888.84
2023-05-01T16:51:16.019Z,100895.13
2023-05-01T16:53:59.506Z,100882.84
2023-05-01T16:56:44.130Z,100890.44
2023-05-01T16:59:30.398Z,100890.81
2023-05-01T17:02:13.994Z,100893.59
2023-05-01T17:04:57.554Z,100890.81
2023-05-01T17:07:41.115Z,100883.31
2023-05-01T17:10:24.641Z,100894.00
2023-05-01T17:13:08.363Z,100890.09
2023-05-01T17:15:52.789Z,100888.09
2023-05-01T17:18:36.646Z,100886.16
2023-05-01T17:21:20.233Z,100885.00
2023-05-01T17:24:04.769Z,100885.34
2023-05-01T17:26:48.430Z,100889.31
2023-05-01T17:29:32.232Z,100889.31
2023-05-01T17:32:29.250Z,100885.38
2023-05-01T17:35:19.770Z,100881.78
2023-05-01T17:38:03.346Z,100886.13
2023-05-01T17:40:47.006Z,100883.00
2023-05-01T17:43:30.720Z,100881.38
2023-05-01T17:46:14.375Z,100883.38
2023-05-01T17:48:57.957Z,100874.66
2023-05-01T17:51:41.748Z,100881.41
2023-05-01T17:54:25.360Z,100882.16
2023-05-01T17:57:09.008Z,100886.13
2023-05-01T17:59:52.670Z,100880.16
2023-05-01T18:02:36.283Z,100877.38
2023-05-01T18:05:20.693Z,100885.66
2023-05-01T18:08:04.423Z,100884.06
2023-05-01T18:10:47.945Z,100872.50
2023-05-01T18:13:38.042Z,100874.78
2023-05-01T18:16:23.488Z,100871.63
2023-05-01T18:19:07.133Z,100869.34
2023-05-01T18:21:50.865Z,100873.38
2023-05-01T18:24:34.431Z,100871.34
2023-05-01T18:27:18.127Z,100872.13
2023-05-01T18:30:02.345Z,100872.19
2023-05-01T18:32:48.816Z,100876.44
2023-05-01T18:35:33.128Z,100873.44
2023-05-01T18:38:16.645Z,100874.41
2023-05-01T18:41:00.185Z,100874.47
2023-05-01T18:43:43.811Z,100878.31
2023-05-01T18:46:27.433Z,100880.09
2023-05-01T18:49:11.106Z,100874.25
2023-05-01T18:51:54.666Z,100866.78
2023-05-01T18:54:38.398Z,100875.44
2023-05-01T18:57:22.809Z,100874.00
2023-05-01T19:00:08.326Z,100876.59
2023-05-01T19:02:53.238Z,100879.56
2023-05-01T19:05:37.807Z,100875.06
2023-05-01T19:08:21.619Z,100881.50
2023-05-01T19:11:06.146Z,100885.34
2023-05-01T19:13:49.737Z,100879.59
2023-05-01T19:16:33.327Z,100877.56
2023-05-01T19:19:17.010Z,100880.44
2023-05-01T19:22:00.527Z,100874.53
2023-05-01T19:24:44.096Z,100875.47
2023-05-01T19:27:27.731Z,100877.28
2023-05-01T19:30:12.680Z,100879.38
2023-05-01T19:32:58.397Z,100879.91
2023-05-01T19:35:42.019Z,100872.50
2023-05-01T19:38:25.981Z,100881.56
2023-05-01T19:41:09.484Z,100875.72
2023-05-01T19:43:53.051Z,100874.66
2023-05-01T19:46:36.878Z,100879.97
2023-05-01T19:49:20.658Z,100886.00
2023-05-01T19:52:04.491Z,100883.94
2023-05-01T19:54:48.036Z,100879.25
2023-05-01T19:57:32.297Z,100876.06
2023-05-01T20:00:16.006Z,100864.75
2023-05-01T20:03:00.564Z,100865.03
2023-05-01T20:05:44.188Z,100858.88
2023-05-01T20:08:27.733Z,100863.97
2023-05-01T20:11:11.466Z,100864.75
2023-05-01T20:13:55.027Z,100856.34
2023-05-01T20:16:38.723Z,100852.94
2023-05-01T20:19:22.530Z,100856.19
2023-05-01T20:22:06.160Z,100854.44
2023-05-01T20:24:49.702Z,100857.34
2023-05-01T20:27:33.496Z,100857.34
2023-05-01T20:30:17.165Z,100852.63
2023-05-01T20:33:00.726Z,100858.13
2023-05-01T20:35:45.536Z,100858.94
2023-05-01T20:38:29.090Z,100862.81
2023-05-01T20:41:12.889Z,100863.25
2023-05-01T20:43:56.569Z,100866.94
2023-05-01T20:46:40.274Z,100864.19
2023-05-01T20:49:23.920Z,100864.03
2023-05-01T20:52:07.434Z,100873.88
2023-05-01T20:54:51.083Z,100861.50
2023-05-01T20:57:36.762Z,100873.22
2023-05-01T21:00:20.834Z,100872.13
2023-05-01T21:03:05.052Z,100880.63
2023-05-01T21:05:48.729Z,100873.69
2023-05-01T21:08:34.045Z,100873.97
2023-05-01T21:11:17.627Z,100870.16
2023-05-01T21:14:01.859Z,100879.34
2023-05-01T21:16:45.409Z,100872.53
2023-05-01T21:19:29.058Z,100871.97
2023-05-01T21:22:22.170Z,100882.75
2023-05-01T21:25:07.697Z,100883.69
2023-05-01T21:27:51.347Z,100886.44
2023-05-01T21:30:36.618Z,100885.72
2023-05-01T21:33:20.453Z,100875.97
2023-05-01T21:36:04.333Z,100887.38
2023-05-01T21:38:48.173Z,100888.91
2023-05-01T21:41:31.768Z,100885.88
2023-05-01T21:44:15.817Z,100887.09
2023-05-01T21:47:01.850Z,100889.69
2023-05-01T21:49:45.506Z,100889.28
2023-05-01T21:52:29.738Z,100888.25
2023-05-01T21:55:25.575Z,100892.00
2023-05-01T21:58:09.206Z,100891.94
2023-05-01T22:00:52.932Z,100886.72
2023-05-01T22:03:41.829Z,100896.44
2023-05-01T22:06:25.802Z,100898.88
2023-05-01T22:09:10.482Z,100893.09
2023-05-01T22:11:54.310Z,100890.00
2023-05-01T22:14:47.125Z,100909.78
2023-05-01T22:17:31.473Z,100891.78
2023-05-01T22:20:15.087Z,100898.97
2023-05-01T22:22:58.664Z,100898.78
2023-05-01T22:25:42.320Z,100902.19
2023-05-01T22:28:26.991Z,100902.34
2023-05-01T22:31:10.515Z,100897.63
2023-05-01T22:33:55.395Z,100899.94
2023-05-01T22:36:38.944Z,100901.47
2023-05-01T22:39:23.314Z,100904.34
2023-05-01T22:42:06.954Z,100898.28
2023-05-01T22:44:50.637Z,100898.84
2023-05-01T22:47:34.486Z,100900.78
2023-05-01T22:50:20.838Z,100899.38
2023-05-01T22:53:04.440Z,100904.88
2023-05-01T22:55:48.186Z,100902.84
2023-05-01T22:58:31.691Z,100906.50
2023-05-01T23:01:15.206Z,100903.09
2023-05-01T23:03:58.891Z,100918.28
2023-05-01T23:06:43.364Z,100914.97
2023-05-01T23:09:26.977Z,100911.97
2023-05-01T23:12:23.528Z,100908.59
2023-05-01T23:15:10.983Z,100901.94
2023-05-01T23:17:56.474Z,100907.88
2023-05-01T23:20:40.807Z,100903.91
2023-05-01T23:23:30.532Z,100907.88
2023-05-01T23:26:41.261Z,100912.50
2023-05-01T23:29:25.351Z,100902.06
2023-05-01T23:32:16.323Z,100904.97
2023-05-01T23:35:12.727Z,100900.34
2023-05-01T23:37:56.564Z,100899.03
2023-05-01T23:40:40.825Z,100898.22
2023-05-01T23:43:24.384Z,100903.00
2023-05-01T23:46:08.110Z,100902.22
2023-05-01T23:48:51.728Z,100904.34
2023-05-01T23:51:35.344Z,100905.84
2023-05-01T23:54:18.853Z,100906.53
2023-05-01T23:57:02.667Z,100905.56
2023-05-01T23:59:46.373Z,100908.59
